createdAt,value
2023-01-11T00:02:30.561Z,2.67
2023-01-11T00:06:06.409Z,3.55
2023-01-11T00:09:19.728Z,3.17
2023-01-11T00:12:39.499Z,3.67
2023-01-11T00:15:50.246Z,3.27
2023-01-11T00:18:57.569Z,2.75
2023-01-11T00:22:01.294Z,3.35
2023-01-11T00:25:24.408Z,2.78
2023-01-11T00:28:44.211Z,3.03
2023-01-11T00:31:56.913Z,3.27
2023-01-11T00:35:14.351Z,3.08
2023-01-11T00:38:57.195Z,3.25
2023-01-11T00:42:33.091Z,3.22
2023-01-11T00:45:55.314Z,3.20
2023-01-11T00:49:02.524Z,2.90
2023-01-11T00:52:24.032Z,3.35
2023-01-11T00:55:43.043Z,2.72
2023-01-11T00:58:46.083Z,2.83
2023-01-11T01:01:50.347Z,3.10
2023-01-11T01:05:00.546Z,2.33
2023-01-11T01:08:07.502Z,3.20
2023-01-11T01:11:14.601Z,2.83
2023-01-11T01:14:31.110Z,2.60
2023-01-11T01:17:39.462Z,3.03
2023-01-11T01:21:02.162Z,2.70
2023-01-11T01:24:24.084Z,2.90
2023-01-11T01:27:48.035Z,2.38
2023-01-11T01:31:10.090Z,2.70
2023-01-11T01:34:31.352Z,3.00
2023-01-11T01:37:54.176Z,3.03
2023-01-11T01:41:16.282Z,3.10
2023-01-11T01:44:59.112Z,3.00
2023-01-11T01:48:13.109Z,3.10
2023-01-11T01:51:24.178Z,3.00
2023-01-11T01:54:46.046Z,3.10
2023-01-11T01:58:08.102Z,3.35
2023-01-11T02:01:47.380Z,2.95
2023-01-11T02:04:57.521Z,3.10
2023-01-11T02:08:19.023Z,3.25
2023-01-11T02:11:38.821Z,3.10
2023-01-11T02:14:57.057Z,3.45
2023-01-11T02:18:12.441Z,3.38
2023-01-11T02:21:37.073Z,3.55
2023-01-11T02:25:08.130Z,3.42
2023-01-11T02:28:38.453Z,3.60
2023-01-11T02:32:35.028Z,3.50
2023-01-11T02:36:09.013Z,3.72
2023-01-11T02:39:36.851Z,3.90
2023-01-11T02:43:04.985Z,4.35
2023-01-11T02:46:33.113Z,3.90
2023-01-11T02:50:04.275Z,4.05
2023-01-11T02:53:28.713Z,4.55
2023-01-11T02:56:39.051Z,4.80
2023-01-11T02:59:43.030Z,5.20
2023-01-11T03:03:19.835Z,5.03
2023-01-11T03:06:35.370Z,5.35
2023-01-11T03:09:55.804Z,5.32
2023-01-11T03:13:44.094Z,4.28
2023-01-11T03:17:17.791Z,5.55
2023-01-11T03:20:53.556Z,5.17
2023-01-11T03:24:12.427Z,5.60
2023-01-11T03:27:33.742Z,5.47
2023-01-11T03:30:52.998Z,5.70
2023-01-11T03:34:33.452Z,5.57
2023-01-11T03:38:03.097Z,4.90
2023-01-11T03:41:19.318Z,5.55
2023-01-11T03:44:46.110Z,5.63
2023-01-11T03:48:27.841Z,5.22
2023-01-11T03:52:02.875Z,5.40
2023-01-11T03:55:16.664Z,4.77
2023-01-11T03:58:34.791Z,5.30
2023-01-11T04:02:06.676Z,5.50
2023-01-11T04:05:11.406Z,6.25
2023-01-11T04:08:15.155Z,5.60
2023-01-11T04:11:26.417Z,5.83
2023-01-11T04:14:49.929Z,5.80
2023-01-11T04:18:16.857Z,5.38
2023-01-11T04:21:26.322Z,5.82
2023-01-11T04:24:41.757Z,5.70
2023-01-11T04:28:15.788Z,5.70
2023-01-11T04:31:19.475Z,5.30
2023-01-11T04:34:23.762Z,5.88
2023-01-11T04:37:30.479Z,5.80
2023-01-11T04:40:53.704Z,5.45
2023-01-11T04:44:14.651Z,5.30
2023-01-11T04:47:38.737Z,5.07
2023-01-11T04:50:49.211Z,5.20
2023-01-11T04:53:53.848Z,5.47
2023-01-11T04:56:59.952Z,5.88
2023-01-11T05:00:22.424Z,5.43
2023-01-11T05:03:43.676Z,5.20
2023-01-11T05:06:56.380Z,6.38
2023-01-11T05:10:13.692Z,6.35
2023-01-11T05:13:17.382Z,5.85
2023-01-11T05:16:26.428Z,6.53
2023-01-11T05:19:39.958Z,6.00
2023-01-11T05:22:46.743Z,6.50
2023-01-11T05:25:53.876Z,6.60
2023-01-11T05:29:04.382Z,6.63
2023-01-11T05:32:20.667Z,6.60
2023-01-11T05:35:40.603Z,7.78
2023-01-11T05:39:08.387Z,7.18
2023-01-11T05:42:22.281Z,7.18
2023-01-11T05:45:48.294Z,7.47
2023-01-11T05:48:59.532Z,6.50
2023-01-11T05:52:23.521Z,7.18
2023-01-11T05:56:08.617Z,7.15
2023-01-11T05:59:22.881Z,7.47
2023-01-11T06:02:45.028Z,6.95
2023-01-11T06:06:07.248Z,7.23
2023-01-11T06:09:29.597Z,7.65
2023-01-11T06:12:50.525Z,7.65
2023-01-11T06:16:02.589Z,7.40
2023-01-11T06:19:06.313Z,7.70
2023-01-11T06:22:36.344Z,7.90
2023-01-11T06:26:02.892Z,7.45
2023-01-11T06:29:38.478Z,7.55
2023-01-11T06:33:13.505Z,7.30
2023-01-11T06:36:32.577Z,7.68
2023-01-11T06:39:53.738Z,8.13
2023-01-11T06:43:07.577Z,7.93
2023-01-11T06:46:33.474Z,8.00
2023-01-11T06:50:22.354Z,7.88
2023-01-11T06:53:47.031Z,8.25
2023-01-11T06:57:03.206Z,7.93
2023-01-11T07:00:19.822Z,7.45
2023-01-11T07:03:48.123Z,8.73
2023-01-11T07:07:08.923Z,7.95
2023-01-11T07:14:46.879Z,8.53
2023-01-11T07:18:06.973Z,8.57
2023-01-11T07:21:44.733Z,8.95
2023-01-11T07:25:15.348Z,8.43
2023-01-11T07:28:38.548Z,8.52
2023-01-11T07:31:46.535Z,9.77
2023-01-11T07:34:51.702Z,9.50
2023-01-11T07:38:00.623Z,9.50
2023-01-11T07:42:19.994Z,9.98
2023-01-11T07:45:45.347Z,8.48
2023-01-11T07:50:04.296Z,9.37
2023-01-11T07:53:17.587Z,9.05
2023-01-11T07:56:34.729Z,8.68
2023-01-11T08:00:36.549Z,8.25
2023-01-11T08:03:51.645Z,8.00
2023-01-11T08:06:54.821Z,7.33
2023-01-11T08:10:03.509Z,7.70
2023-01-11T08:14:19.634Z,8.38
2023-01-11T08:17:31.994Z,7.28
2023-01-11T08:20:51.602Z,9.18
2023-01-11T08:24:20.555Z,8.50
2023-01-11T08:28:03.269Z,8.13
2023-01-11T08:31:09.180Z,8.18
2023-01-11T08:34:29.711Z,7.93
2023-01-11T08:37:52.061Z,8.20
2023-01-11T08:41:14.793Z,8.67
2023-01-11T08:45:35.205Z,26.17
2023-01-11T08:49:03.687Z,11.77
2023-01-11T08:52:31.785Z,8.55
2023-01-11T08:57:00.976Z,9.13
2023-01-11T09:01:07.068Z,7.73
2023-01-11T09:04:24.775Z,7.78
2023-01-11T09:07:31.693Z,8.65
2023-01-11T09:10:45.276Z,8.27
2023-01-11T09:14:05.731Z,8.50
2023-01-11T09:17:25.345Z,8.23
2023-01-11T09:20:39.356Z,8.25
2023-01-11T09:24:22.009Z,8.68
2023-01-11T09:27:31.738Z,8.98
2023-01-11T09:30:52.635Z,7.80
2023-01-11T09:34:09.043Z,7.20
2023-01-11T09:37:33.298Z,8.00
2023-01-11T09:41:39.180Z,7.95
2023-01-11T09:45:33.671Z,21.90
2023-01-11T09:49:03.364Z,7.40
2023-01-11T09:52:36.420Z,7.13
2023-01-11T09:55:47.506Z,7.38
2023-01-11T09:59:48.650Z,7.05
2023-01-11T10:03:30.865Z,7.30
2023-01-11T10:07:17.326Z,7.30
2023-01-11T10:18:27.482Z,6.10
2023-01-11T10:19:18.528Z,6.78
2023-01-11T10:22:34.104Z,5.88
2023-01-11T10:25:50.855Z,6.35
2023-01-11T10:51:47.766Z,6.05
2023-01-11T10:55:27.504Z,5.80
2023-01-11T10:59:24.918Z,6.50
2023-01-11T11:02:51.064Z,6.20
2023-01-11T11:06:33.579Z,6.30
2023-01-11T11:10:04.501Z,6.22
2023-01-11T11:17:54.078Z,5.60
2023-01-11T11:21:40.312Z,5.70
2023-01-11T11:25:29.690Z,6.10
2023-01-11T11:29:08.671Z,5.70
2023-01-11T11:32:41.924Z,6.50
2023-01-11T11:36:10.408Z,5.93
2023-01-11T11:44:37.237Z,6.07
2023-01-11T11:47:41.440Z,5.57
2023-01-11T11:51:14.125Z,6.50
2023-01-11T11:54:30.265Z,5.63
2023-01-11T11:58:03.685Z,5.68
2023-01-11T12:01:40.743Z,5.10
2023-01-11T12:04:53.844Z,8.25
2023-01-11T12:08:25.106Z,6.73
2023-01-11T12:11:39.323Z,16.55
2023-01-11T12:14:42.960Z,4.85
2023-01-11T12:17:46.466Z,4.03
2023-01-11T12:25:29.309Z,4.17
2023-01-11T12:28:52.098Z,4.05
2023-01-11T12:32:29.436Z,4.00
2023-01-11T12:36:17.468Z,3.55
2023-01-11T12:40:02.015Z,3.78
2023-01-11T12:43:31.007Z,3.20
2023-01-11T12:47:04.225Z,3.20
2023-01-11T12:50:22.639Z,3.50
2023-01-11T12:53:28.875Z,8.65
2023-01-11T12:56:55.034Z,3.60
2023-01-11T13:00:40.738Z,3.23
2023-01-11T13:04:42.950Z,4.00
2023-01-11T13:09:16.660Z,11.20
2023-01-11T13:12:51.350Z,3.63
2023-01-11T13:20:58.851Z,2.80
2023-01-11T13:24:31.258Z,3.10
2023-01-11T13:27:46.323Z,3.45
2023-01-11T13:31:27.411Z,3.65
2023-01-11T13:35:04.181Z,4.22
2023-01-11T13:38:51.970Z,4.50
2023-01-11T13:42:04.659Z,4.80
2023-01-11T13:45:20.040Z,4.28
2023-01-11T13:48:48.517Z,4.78
2023-01-11T13:52:22.995Z,4.45
2023-01-11T13:55:46.858Z,4.37
2023-01-11T13:59:17.899Z,17.30
2023-01-11T14:03:29.419Z,4.20
2023-01-11T14:06:43.119Z,19.25
2023-01-11T14:10:28.213Z,4.70
2023-01-11T14:14:13.757Z,4.67
2023-01-11T14:17:49.584Z,5.10
2023-01-11T14:21:11.684Z,4.90
2023-01-11T14:24:23.819Z,4.70
2023-01-11T14:27:33.447Z,4.60
2023-01-11T14:30:55.504Z,4.60
2023-01-11T14:34:32.768Z,5.78
2023-01-11T14:38:04.464Z,5.35
2023-01-11T14:41:48.136Z,5.20
2023-01-11T14:45:36.970Z,5.00
2023-01-11T14:48:58.737Z,5.87
2023-01-11T14:52:18.564Z,5.35
2023-01-11T14:55:35.707Z,5.70
2023-01-11T14:59:03.467Z,6.57
2023-01-11T15:02:19.257Z,6.07
2023-01-11T15:05:36.164Z,5.90
2023-01-11T15:09:02.011Z,5.82
2023-01-11T15:12:26.251Z,7.13
2023-01-11T15:15:58.371Z,6.00
2023-01-11T15:19:08.077Z,6.40
2023-01-11T15:22:28.592Z,6.50
2023-01-11T15:25:49.276Z,6.50
2023-01-11T15:29:04.133Z,6.28
2023-01-11T15:32:24.288Z,6.53
2023-01-11T15:35:44.018Z,6.47
2023-01-11T15:39:09.265Z,6.47
2023-01-11T15:43:01.217Z,6.40
2023-01-11T15:46:52.390Z,7.22
2023-01-11T15:50:41.952Z,6.38
2023-01-11T15:54:08.562Z,6.47
2023-01-11T15:57:24.297Z,6.13
2023-01-11T16:01:11.719Z,6.50
2023-01-11T16:04:41.495Z,9.43
2023-01-11T16:08:12.903Z,6.40
2023-01-11T16:11:52.891Z,6.63
2023-01-11T16:15:45.009Z,8.00
2023-01-11T16:18:59.995Z,7.95
2023-01-11T16:22:25.511Z,10.50
2023-01-11T16:25:40.913Z,11.40
2023-01-11T16:28:57.328Z,9.65
2023-01-11T16:32:39.171Z,10.53
2023-01-11T16:35:49.900Z,12.65
2023-01-11T16:39:13.839Z,12.93
2023-01-11T16:42:34.875Z,9.38
2023-01-11T16:45:53.802Z,8.85
2023-01-11T16:49:18.813Z,8.13
2023-01-11T16:52:41.958Z,8.85
2023-01-11T16:56:24.146Z,8.52
2023-01-11T16:59:34.076Z,10.35
2023-01-11T17:02:51.061Z,8.85
2023-01-11T17:06:11.841Z,8.37
2023-01-11T17:09:21.718Z,9.20
2023-01-11T17:12:26.638Z,9.07
2023-01-11T17:16:00.653Z,9.23
2023-01-11T17:19:41.911Z,9.70
2023-01-11T17:23:01.796Z,9.67
2023-01-11T17:26:26.171Z,9.68
2023-01-11T17:29:40.983Z,9.85
2023-01-11T17:32:47.919Z,10.18
2023-01-11T17:35:53.505Z,10.48
2023-01-11T17:39:00.161Z,10.83
2023-01-11T17:42:29.633Z,11.88
2023-01-11T17:45:35.178Z,10.45
2023-01-11T17:48:56.008Z,11.85
2023-01-11T17:52:20.342Z,11.93
2023-01-11T17:55:32.868Z,16.50
2023-01-11T17:58:40.992Z,17.85
2023-01-11T18:02:08.972Z,14.57
2023-01-11T18:05:18.172Z,12.02
2023-01-11T18:08:25.268Z,12.05
2023-01-11T18:11:42.004Z,12.07
2023-01-11T18:14:53.326Z,12.35
2023-01-11T18:17:57.588Z,12.40
2023-01-11T18:21:00.825Z,13.30
2023-01-11T18:24:11.980Z,12.30
2023-01-11T18:27:28.864Z,12.53
2023-01-11T18:30:44.132Z,13.80
2023-01-11T18:33:53.926Z,14.02
2023-01-11T18:37:08.686Z,13.70
2023-01-11T18:40:19.825Z,14.85
2023-01-11T18:43:33.328Z,14.07
2023-01-11T18:46:40.853Z,14.18
2023-01-11T18:49:57.470Z,14.77
2023-01-11T18:53:00.796Z,14.57
2023-01-11T18:56:05.568Z,14.77
2023-01-11T18:59:18.043Z,14.90
2023-01-11T19:02:35.091Z,17.02
2023-01-11T19:05:51.415Z,15.85
2023-01-11T19:08:58.278Z,17.08
2023-01-11T19:12:05.651Z,18.15
2023-01-11T19:15:15.568Z,18.53
2023-01-11T19:18:19.993Z,17.95
2023-01-11T19:21:43.511Z,19.35
2023-01-11T19:25:21.578Z,18.95
2023-01-11T19:28:41.592Z,19.25
2023-01-11T19:32:02.412Z,22.23
2023-01-11T19:35:27.569Z,20.30
2023-01-11T19:38:51.447Z,18.52
2023-01-11T19:41:58.068Z,17.20
2023-01-11T19:45:06.428Z,16.70
2023-01-11T19:48:11.109Z,16.67
2023-01-11T19:51:20.963Z,17.15
2023-01-11T19:54:44.784Z,17.15
2023-01-11T19:58:18.299Z,17.13
2023-01-11T20:01:38.933Z,18.25
2023-01-11T20:04:56.425Z,17.87
2023-01-11T20:08:05.968Z,17.45
2023-01-11T20:11:14.505Z,17.92
2023-01-11T20:14:22.702Z,19.50
2023-01-11T20:17:25.909Z,18.23
2023-01-11T20:20:33.636Z,18.80
2023-01-11T20:23:38.769Z,17.00
2023-01-11T20:26:55.443Z,19.60
2023-01-11T20:30:16.295Z,17.95
2023-01-11T20:33:47.447Z,19.55
2023-01-11T20:37:02.187Z,25.83
2023-01-11T20:40:21.352Z,22.30
2023-01-11T20:43:50.134Z,25.63
2023-01-11T20:47:00.144Z,29.15
2023-01-11T20:50:04.211Z,21.85
2023-01-11T20:53:14.114Z,20.90
2023-01-11T20:56:30.676Z,20.63
2023-01-11T20:59:37.015Z,21.80
2023-01-11T21:03:04.762Z,21.00
2023-01-11T21:06:23.498Z,21.70
2023-01-11T21:09:30.285Z,21.43
2023-01-11T21:15:46.450Z,20.52
2023-01-11T21:19:09.195Z,20.55
2023-01-11T21:22:34.180Z,22.80
2023-01-11T21:26:00.305Z,22.37
2023-01-11T21:29:05.520Z,22.08
2023-01-11T21:32:09.236Z,22.50
2023-01-11T21:35:18.762Z,22.63
2023-01-11T21:38:42.692Z,22.35
2023-01-11T21:42:06.117Z,24.23
2023-01-11T21:45:21.032Z,24.98
2023-01-11T21:48:44.126Z,25.38
2023-01-11T21:52:00.139Z,25.60
2023-01-11T21:55:21.359Z,24.67
2023-01-11T21:58:37.550Z,27.17
2023-01-11T22:01:43.780Z,26.02
2023-01-11T22:04:48.297Z,24.67
2023-01-11T22:07:58.196Z,24.80
2023-01-11T22:11:10.061Z,22.73
2023-01-11T22:14:14.441Z,23.33
2023-01-11T22:17:24.433Z,22.15
2023-01-11T22:20:48.046Z,22.13
2023-01-11T22:24:10.424Z,21.40
2023-01-11T22:27:27.042Z,22.05
2023-01-11T22:30:58.822Z,22.13
2023-01-11T22:34:02.918Z,24.00
2023-01-11T22:37:30.786Z,24.67
2023-01-11T22:41:05.151Z,24.33
2023-01-11T22:44:26.023Z,25.30
2023-01-11T22:47:45.911Z,23.37
2023-01-11T22:51:11.763Z,25.40
2023-01-11T22:54:22.981Z,26.13
2023-01-11T22:57:26.981Z,25.85
2023-01-11T23:00:31.787Z,25.35
2023-01-11T23:03:39.452Z,25.87
2023-01-11T23:06:43.518Z,24.83
2023-01-11T23:09:47.244Z,24.92
2023-01-11T23:13:15.891Z,25.00
2023-01-11T23:16:30.181Z,23.60
2023-01-11T23:19:47.875Z,23.20
2023-01-11T23:23:08.917Z,22.95
2023-01-11T23:26:33.912Z,23.58
2023-01-11T23:30:03.807Z,23.45
2023-01-11T23:33:25.732Z,23.30
2023-01-11T23:36:47.801Z,23.17
2023-01-11T23:40:09.773Z,23.10
2023-01-11T23:43:26.030Z,23.15
2023-01-11T23:47:02.984Z,23.70
2023-01-11T23:50:12.964Z,23.08
2023-01-11T23:53:15.795Z,22.97
2023-01-11T23:56:22.828Z,22.95
2023-01-11T23:59:32.465Z,23.80
